createdAt,value
2019-02-08T00:02:27.610Z,97195.72
2019-02-08T00:05:34.708Z,97197.38
2019-02-08T00:08:43.342Z,97205.79
2019-02-08T00:11:51.602Z,97218.89
2019-02-08T00:14:58.550Z,97214.66
2019-02-08T00:18:05.593Z,97215.92
2019-02-08T00:21:12.620Z,97213.42
2019-02-08T00:24:19.767Z,97218.50
2019-02-08T00:27:27.106Z,97222.24
2019-02-08T00:30:34.158Z,97218.87
2019-02-08T00:33:41.558Z,97220.09
2019-02-08T00:36:48.651Z,97222.59
2019-02-08T00:39:55.757Z,97228.53
2019-02-08T00:43:02.816Z,97239.52
2019-02-08T00:46:10.236Z,97236.52
2019-02-08T00:49:19.620Z,97231.47
2019-02-08T00:52:26.670Z,97228.89
2019-02-08T00:55:33.662Z,97227.73
2019-02-08T00:58:43.524Z,97226.06
2019-02-08T01:01:50.458Z,97232.81
2019-02-08T01:04:57.492Z,97223.94
2019-02-08T01:08:04.580Z,97231.08
2019-02-08T01:11:11.587Z,97221.38
2019-02-08T01:14:21.459Z,97220.53
2019-02-08T01:17:28.372Z,97224.25
2019-02-08T01:20:36.504Z,97217.45
2019-02-08T01:23:43.475Z,97222.98
2019-02-08T01:26:50.413Z,97230.55
2019-02-08T01:29:57.455Z,97232.70
2019-02-08T01:33:05.068Z,97224.20
2019-02-08T01:36:13.250Z,97223.41
2019-02-08T01:39:20.190Z,97222.95
2019-02-08T01:42:30.589Z,97220.85
2019-02-08T01:45:37.537Z,97230.11
2019-02-08T01:48:45.608Z,97239.59
2019-02-08T01:51:52.663Z,97235.33
2019-02-08T01:54:59.591Z,97247.95
2019-02-08T01:58:07.546Z,97248.47
2019-02-08T02:01:15.068Z,97256.49
2019-02-08T02:04:22.307Z,97253.09
2019-02-08T02:07:29.361Z,97254.86
2019-02-08T02:10:42.310Z,97251.07
2019-02-08T02:13:49.426Z,97254.88
2019-02-08T02:16:56.614Z,97247.31
2019-02-08T02:20:03.841Z,97244.35
2019-02-08T02:23:14.627Z,97250.69
2019-02-08T02:26:21.796Z,97257.44
2019-02-08T02:29:28.854Z,97262.45
2019-02-08T02:32:36.927Z,97266.30
2019-02-08T02:35:46.152Z,97270.03
2019-02-08T02:38:54.585Z,97266.27
2019-02-08T02:42:01.705Z,97267.91
2019-02-08T02:45:18.221Z,97269.97
2019-02-08T02:48:25.402Z,97259.86
2019-02-08T02:51:32.469Z,97262.36
2019-02-08T02:54:42.366Z,97265.77
2019-02-08T02:57:49.601Z,97264.14
2019-02-08T03:00:56.553Z,97272.92
2019-02-08T03:04:03.567Z,97283.03
2019-02-08T03:07:10.516Z,97287.09
2019-02-08T03:10:18.986Z,97272.07
2019-02-08T03:13:27.044Z,97281.70
2019-02-08T03:16:34.060Z,97280.48
2019-02-08T03:19:41.038Z,97289.80
2019-02-08T03:22:48.028Z,97286.94
2019-02-08T03:25:55.195Z,97286.09
2019-02-08T03:29:02.126Z,97308.89
2019-02-08T03:32:09.098Z,97311.38
2019-02-08T03:35:21.547Z,97326.18
2019-02-08T03:38:28.495Z,97322.02
2019-02-08T03:41:36.784Z,97326.66
2019-02-08T03:44:43.750Z,97324.63
2019-02-08T03:47:50.906Z,97312.05
2019-02-08T03:50:57.801Z,97309.56
2019-02-08T03:54:04.995Z,97314.98
2019-02-08T03:57:12.121Z,97319.60
2019-02-08T04:00:38.987Z,97327.58
2019-02-08T04:03:46.086Z,97314.94
2019-02-08T04:06:53.145Z,97317.12
2019-02-08T04:10:00.219Z,97315.06
2019-02-08T04:13:07.327Z,97323.91
2019-02-08T04:16:14.761Z,97318.44
2019-02-08T04:19:21.718Z,97328.15
2019-02-08T04:22:28.647Z,97329.41
2019-02-08T04:25:36.326Z,97327.27
2019-02-08T04:28:43.468Z,97333.17
2019-02-08T04:31:51.936Z,97338.23
2019-02-08T04:34:58.844Z,97340.75
2019-02-08T04:38:06.106Z,97336.06
2019-02-08T04:41:13.113Z,97327.22
2019-02-08T04:44:21.831Z,97327.58
2019-02-08T04:47:29.854Z,97328.46
2019-02-08T04:50:36.766Z,97312.91
2019-02-08T04:53:43.722Z,97317.09
2019-02-08T04:56:50.753Z,97318.35
2019-02-08T04:59:57.838Z,97330.61
2019-02-08T05:03:05.221Z,97338.16
2019-02-08T05:06:12.219Z,97336.05
2019-02-08T05:09:19.520Z,97341.48
2019-02-08T05:12:26.430Z,97346.08
2019-02-08T05:15:33.477Z,97333.05
2019-02-08T05:18:40.406Z,97336.36
2019-02-08T05:21:47.423Z,97324.20
2019-02-08T05:24:54.394Z,97325.49
2019-02-08T05:28:01.437Z,97327.52
2019-02-08T05:31:08.469Z,97328.79
2019-02-08T05:34:16.679Z,97330.86
2019-02-08T05:37:24.008Z,97332.97
2019-02-08T05:40:31.766Z,97332.18
2019-02-08T05:43:39.137Z,97324.59
2019-02-08T05:46:46.476Z,97328.30
2019-02-08T05:49:53.347Z,97327.52
2019-02-08T05:53:00.470Z,97326.63
2019-02-08T05:56:07.410Z,97332.13
2019-02-08T05:59:17.931Z,97326.98
2019-02-08T06:02:25.231Z,97325.70
2019-02-08T06:05:32.319Z,97330.80
2019-02-08T06:08:39.231Z,97337.83
2019-02-08T06:11:46.237Z,97335.34
2019-02-08T06:14:53.199Z,97331.58
2019-02-08T06:18:00.118Z,97335.35
2019-02-08T06:21:07.114Z,97328.23
2019-02-08T06:24:15.903Z,97330.25
2019-02-08T06:27:22.792Z,97340.37
2019-02-08T06:30:29.833Z,97343.73
2019-02-08T06:33:36.765Z,97338.78
2019-02-08T06:36:43.811Z,97350.55
2019-02-08T06:39:50.717Z,97340.95
2019-02-08T06:42:58.142Z,97344.73
2019-02-08T06:46:05.154Z,97350.14
2019-02-08T06:49:12.867Z,97349.77
2019-02-08T06:52:22.514Z,97352.28
2019-02-08T06:55:29.759Z,97359.44
2019-02-08T06:58:58.427Z,97367.50
2019-02-08T07:02:30.456Z,97373.34
2019-02-08T07:05:56.553Z,97380.52
2019-02-08T07:09:17.334Z,97384.30
2019-02-08T07:12:41.847Z,97390.62
2019-02-08T07:16:10.723Z,97386.43
2019-02-08T07:19:42.439Z,97378.33
2019-02-08T07:23:26.706Z,97377.02
2019-02-08T07:26:51.246Z,97387.51
2019-02-08T07:30:35.540Z,97379.52
2019-02-08T07:33:48.499Z,97375.73
2019-02-08T07:37:15.538Z,97373.56
2019-02-08T07:40:45.269Z,97372.26
2019-02-08T07:44:12.674Z,97371.37
2019-02-08T07:47:27.834Z,97357.42
2019-02-08T07:51:00.330Z,97363.30
2019-02-08T07:54:25.242Z,97371.72
2019-02-08T07:57:49.607Z,97371.23
2019-02-08T08:01:29.097Z,97372.50
2019-02-08T08:05:04.577Z,97377.12
2019-02-08T08:08:25.607Z,97373.71
2019-02-08T08:11:41.228Z,97361.05
2019-02-08T08:15:00.192Z,97365.66
2019-02-08T08:18:18.239Z,97368.48
2019-02-08T08:21:47.186Z,97358.47
2019-02-08T08:25:14.577Z,97373.19
2019-02-08T08:28:43.425Z,97374.41
2019-02-08T08:32:02.146Z,97377.00
2019-02-08T08:35:52.680Z,97370.14
2019-02-08T08:39:48.866Z,97371.83
2019-02-08T08:43:46.150Z,97361.73
2019-02-08T08:47:51.951Z,97376.73
2019-02-08T08:51:37.836Z,97383.91
2019-02-08T08:56:16.145Z,97382.50
2019-02-08T08:59:52.356Z,97390.87
2019-02-08T09:04:02.847Z,97379.92
2019-02-08T09:08:00.860Z,97370.91
2019-02-08T09:11:50.834Z,97371.55
2019-02-08T09:15:52.660Z,97362.20
2019-02-08T09:19:46.496Z,97356.61
2019-02-08T09:24:10.821Z,97357.00
2019-02-08T09:28:18.094Z,97359.30
2019-02-08T09:32:37.239Z,97348.62
2019-02-08T09:36:59.343Z,97349.51
2019-02-08T09:40:55.182Z,97353.66
2019-02-08T09:44:51.899Z,97345.32
2019-02-08T09:48:41.466Z,97344.09
2019-02-08T09:52:45.732Z,97355.56
2019-02-08T09:56:53.520Z,97351.31
2019-02-08T10:00:40.965Z,97347.46
2019-02-08T10:04:42.313Z,97343.36
2019-02-08T10:09:16.227Z,97346.75
2019-02-08T10:13:16.212Z,97341.23
2019-02-08T10:17:11.484Z,97346.77
2019-02-08T10:21:19.581Z,97351.08
2019-02-08T10:25:39.557Z,97353.95
2019-02-08T10:29:51.049Z,97347.55
2019-02-08T10:33:52.684Z,97342.71
2019-02-08T10:38:03.573Z,97329.85
2019-02-08T10:42:30.062Z,97338.80
2019-02-08T10:46:39.457Z,97343.90
2019-02-08T10:51:02.242Z,97344.73
2019-02-08T10:55:10.971Z,97351.69
2019-02-08T10:59:30.751Z,97343.92
2019-02-08T11:03:50.136Z,97333.67
2019-02-08T11:08:03.462Z,97335.48
2019-02-08T11:12:26.854Z,97339.31
2019-02-08T11:16:32.176Z,97332.13
2019-02-08T11:19:38.333Z,97331.59
2019-02-08T11:22:45.331Z,97328.71
2019-02-08T11:25:52.244Z,97333.58
2019-02-08T11:28:59.285Z,97324.69
2019-02-08T11:32:07.647Z,97325.91
2019-02-08T11:35:17.335Z,97331.84
2019-02-08T11:38:24.407Z,97321.66
2019-02-08T11:41:31.524Z,97322.50
2019-02-08T11:44:38.468Z,97332.97
2019-02-08T11:47:45.511Z,97326.02
2019-02-08T11:50:52.424Z,97332.93
2019-02-08T11:53:59.465Z,97321.84
2019-02-08T11:57:06.901Z,97317.25
2019-02-08T12:00:26.388Z,97302.69
2019-02-08T12:03:33.413Z,97311.89
2019-02-08T12:06:40.387Z,97306.25
2019-02-08T12:09:47.374Z,97309.51
2019-02-08T12:12:54.380Z,97303.59
2019-02-08T12:16:02.546Z,97299.77
2019-02-08T12:19:11.228Z,97294.46
2019-02-08T12:22:19.705Z,97293.84
2019-02-08T12:25:26.833Z,97292.47
2019-02-08T12:28:34.033Z,97288.81
2019-02-08T12:31:40.990Z,97282.09
2019-02-08T12:34:47.938Z,97278.30
2019-02-08T12:38:01.247Z,97280.40
2019-02-08T12:41:09.759Z,97276.22
2019-02-08T12:44:19.973Z,97270.23
2019-02-08T12:47:27.037Z,97271.82
2019-02-08T12:50:34.065Z,97265.72
2019-02-08T12:53:40.942Z,97260.39
2019-02-08T12:56:47.942Z,97261.34
2019-02-08T12:59:55.193Z,97247.90
2019-02-08T13:03:02.129Z,97247.13
2019-02-08T13:06:12.674Z,97251.26
2019-02-08T13:09:23.208Z,97243.03
2019-02-08T13:12:30.326Z,97234.62
2019-02-08T13:15:37.368Z,97233.43
2019-02-08T13:18:44.287Z,97217.02
2019-02-08T13:21:56.297Z,97219.68
2019-02-08T13:25:04.250Z,97214.82
2019-02-08T13:28:11.443Z,97208.12
2019-02-08T13:31:18.471Z,97210.66
2019-02-08T13:34:25.480Z,97204.98
2019-02-08T13:37:33.081Z,97196.93
2019-02-08T13:40:54.692Z,97200.62
2019-02-08T13:44:02.039Z,97183.76
2019-02-08T13:47:08.984Z,97177.52
2019-02-08T13:50:22.413Z,97170.67
2019-02-08T13:53:29.337Z,97169.05
2019-02-08T13:56:36.229Z,97164.28
2019-02-08T13:59:43.296Z,97163.53
2019-02-08T14:02:51.630Z,97164.55
2019-02-08T14:05:58.709Z,97167.28
2019-02-08T14:09:09.377Z,97169.92
2019-02-08T14:12:19.340Z,97172.97
2019-02-08T14:15:27.092Z,97175.60
2019-02-08T14:18:37.127Z,97175.86
2019-02-08T14:21:44.042Z,97179.69
2019-02-08T14:24:51.016Z,97170.94
2019-02-08T14:27:58.093Z,97166.92
2019-02-08T14:31:11.470Z,97163.30
2019-02-08T14:34:18.709Z,97174.36
2019-02-08T14:37:25.659Z,97175.27
2019-02-08T14:40:34.705Z,97170.11
2019-02-08T14:43:42.540Z,97169.05
2019-02-08T14:46:49.640Z,97172.64
2019-02-08T14:49:56.662Z,97163.20
2019-02-08T14:53:03.582Z,97161.61
2019-02-08T14:56:10.534Z,97162.03
2019-02-08T14:59:17.711Z,97153.94
2019-02-08T15:02:24.681Z,97157.34
2019-02-08T15:05:34.401Z,97158.70
2019-02-08T15:08:41.427Z,97144.48
2019-02-08T15:11:48.365Z,97143.45
2019-02-08T15:14:55.327Z,97129.88
2019-02-08T15:18:02.284Z,97127.19
2019-02-08T15:21:09.283Z,97128.00
2019-02-08T15:24:22.175Z,97117.08
2019-02-08T15:27:29.195Z,97120.56
2019-02-08T15:30:36.454Z,97117.78
2019-02-08T15:33:43.451Z,97118.27
2019-02-08T15:36:51.618Z,97115.23
2019-02-08T15:39:59.609Z,97117.71
2019-02-08T15:43:07.205Z,97112.77
2019-02-08T15:46:14.924Z,97103.59
2019-02-08T15:49:24.855Z,97106.68
2019-02-08T15:52:31.835Z,97104.52
2019-02-08T15:55:40.717Z,97102.06
2019-02-08T15:58:47.739Z,97091.72
2019-02-08T16:01:55.781Z,97090.46
2019-02-08T16:05:05.612Z,97098.45
2019-02-08T16:08:15.737Z,97092.33
2019-02-08T16:11:22.919Z,97096.98
2019-02-08T16:14:29.859Z,97088.65
2019-02-08T16:17:36.924Z,97088.18
2019-02-08T16:20:44.162Z,97091.39
2019-02-08T16:23:51.169Z,97102.45
2019-02-08T16:26:58.240Z,97101.21
2019-02-08T16:30:10.376Z,97090.48
2019-02-08T16:33:18.157Z,97091.94
2019-02-08T16:36:25.089Z,97089.56
2019-02-08T16:39:32.157Z,97086.13
2019-02-08T16:42:39.119Z,97093.52
2019-02-08T16:45:46.343Z,97094.91
2019-02-08T16:48:53.305Z,97083.06
2019-02-08T16:52:00.208Z,97082.84
2019-02-08T16:55:09.954Z,97076.59
2019-02-08T16:58:19.803Z,97078.08
2019-02-08T17:01:26.796Z,97071.99
2019-02-08T17:04:34.595Z,97071.77
2019-02-08T17:07:41.702Z,97067.59
2019-02-08T17:10:48.951Z,97073.89
2019-02-08T17:13:55.961Z,97065.87
2019-02-08T17:17:04.560Z,97073.78
2019-02-08T17:20:35.468Z,97070.77
2019-02-08T17:23:42.481Z,97073.66
2019-02-08T17:26:49.493Z,97074.61
2019-02-08T17:30:02.494Z,97062.34
2019-02-08T17:33:14.996Z,97062.17
2019-02-08T17:36:23.117Z,97053.94
2019-02-08T17:39:30.130Z,97050.33
2019-02-08T17:42:37.550Z,97042.73
2019-02-08T17:45:44.490Z,97042.77
2019-02-08T17:48:51.488Z,97045.34
2019-02-08T17:51:58.390Z,97033.01
2019-02-08T17:55:07.152Z,97031.18
2019-02-08T17:58:14.250Z,97034.92
2019-02-08T18:01:26.235Z,97035.67
2019-02-08T18:04:33.165Z,97031.58
2019-02-08T18:07:40.044Z,97034.36
2019-02-08T18:10:46.958Z,97033.48
2019-02-08T18:13:53.854Z,97028.48
2019-02-08T18:17:00.757Z,97027.59
2019-02-08T18:20:14.219Z,97023.50
2019-02-08T18:23:21.218Z,97009.41
2019-02-08T18:26:28.110Z,97007.59
2019-02-08T18:29:35.076Z,96997.27
2019-02-08T18:32:42.118Z,96996.47
2019-02-08T18:35:49.096Z,97000.27
2019-02-08T18:38:58.855Z,96992.59
2019-02-08T18:42:05.770Z,96989.20
2019-02-08T18:45:17.750Z,96981.95
2019-02-08T18:48:24.805Z,96980.65
2019-02-08T18:51:31.742Z,96968.97
2019-02-08T18:54:38.832Z,96962.58
2019-02-08T18:57:45.809Z,96956.67
2019-02-08T19:00:53.327Z,96953.88
2019-02-08T19:04:01.408Z,96947.09
2019-02-08T19:07:08.405Z,96947.54
2019-02-08T19:10:18.731Z,96948.62
2019-02-08T19:13:26.524Z,96929.95
2019-02-08T19:16:33.451Z,96930.30
2019-02-08T19:19:40.512Z,96930.88
2019-02-08T19:22:47.562Z,96920.11
2019-02-08T19:25:54.537Z,96907.17
2019-02-08T19:29:01.413Z,96911.30
2019-02-08T19:32:11.133Z,96899.48
2019-02-08T19:35:18.743Z,96900.36
2019-02-08T19:38:25.982Z,96893.52
2019-02-08T19:41:32.835Z,96899.38
2019-02-08T19:44:39.827Z,96895.18
2019-02-08T19:47:46.797Z,96891.28
2019-02-08T19:50:53.797Z,96888.92
2019-02-08T19:54:00.776Z,96876.00
2019-02-08T19:57:08.174Z,96867.41
2019-02-08T20:00:18.534Z,96862.47
2019-02-08T20:03:26.463Z,96859.98
2019-02-08T20:06:33.412Z,96859.64
2019-02-08T20:09:40.334Z,96856.20
2019-02-08T20:12:47.277Z,96855.45
2019-02-08T20:15:55.209Z,96855.94
2019-02-08T20:19:02.237Z,96860.87
2019-02-08T20:22:09.322Z,96859.59
2019-02-08T20:25:23.730Z,96865.67
2019-02-08T20:28:30.783Z,96860.73
2019-02-08T20:31:37.724Z,96855.42
2019-02-08T20:34:44.707Z,96852.86
2019-02-08T20:37:51.768Z,96850.84
2019-02-08T20:40:58.796Z,96851.17
2019-02-08T20:44:06.040Z,96832.63
2019-02-08T20:47:17.776Z,96841.78
2019-02-08T20:50:25.577Z,96834.89
2019-02-08T20:53:32.673Z,96841.42
2019-02-08T20:56:39.616Z,96834.09
2019-02-08T20:59:46.722Z,96834.27
2019-02-08T21:02:54.627Z,96827.34
2019-02-08T21:06:01.676Z,96825.47
2019-02-08T21:09:14.525Z,96818.44
2019-02-08T21:12:21.634Z,96815.23
2019-02-08T21:15:28.854Z,96801.38
2019-02-08T21:18:36.278Z,96800.11
2019-02-08T21:21:43.299Z,96788.73
2019-02-08T21:24:50.357Z,96784.22
2019-02-08T21:27:57.280Z,96787.30
2019-02-08T21:31:04.191Z,96773.55
2019-02-08T21:34:11.256Z,96771.50
2019-02-08T21:37:18.261Z,96766.69
2019-02-08T21:40:27.039Z,96759.67
2019-02-08T21:43:34.240Z,96755.28
2019-02-08T21:46:41.302Z,96753.27
2019-02-08T21:49:50.746Z,96748.19
2019-02-08T21:52:57.740Z,96730.75
2019-02-08T21:56:07.339Z,96714.30
2019-02-08T21:59:15.911Z,96723.44
2019-02-08T22:02:22.978Z,96714.69
2019-02-08T22:05:55.467Z,96705.39
2019-02-08T22:09:02.478Z,96696.97
2019-02-08T22:12:09.910Z,96680.05
2019-02-08T22:15:20.897Z,96676.56
2019-02-08T22:18:27.914Z,96672.09
2019-02-08T22:21:35.220Z,96674.97
2019-02-08T22:24:42.112Z,96665.84
2019-02-08T22:27:49.088Z,96659.42
2019-02-08T22:30:56.056Z,96650.21
2019-02-08T22:34:03.039Z,96642.98
2019-02-08T22:37:10.022Z,96640.77
2019-02-08T22:40:19.721Z,96625.05
2019-02-08T22:43:26.691Z,96631.45
2019-02-08T22:46:33.640Z,96628.16
2019-02-08T22:49:40.669Z,96619.09
2019-02-08T22:52:48.815Z,96616.81
2019-02-08T22:55:55.706Z,96609.02
2019-02-08T22:59:02.811Z,96603.58
2019-02-08T23:02:10.613Z,96606.77
2019-02-08T23:05:19.335Z,96604.92
2019-02-08T23:08:26.333Z,96595.51
2019-02-08T23:11:34.513Z,96579.52
2019-02-08T23:14:41.333Z,96559.37
2019-02-08T23:17:48.332Z,96557.59
2019-02-08T23:20:55.292Z,96554.72
2019-02-08T23:24:05.784Z,96554.52
2019-02-08T23:27:13.436Z,96548.71
2019-02-08T23:30:20.738Z,96537.76
2019-02-08T23:33:27.748Z,96534.11
2019-02-08T23:36:35.178Z,96534.91
2019-02-08T23:39:42.025Z,96531.80
2019-02-08T23:42:49.021Z,96523.58
2019-02-08T23:45:55.983Z,96528.95
2019-02-08T23:49:02.977Z,96518.64
2019-02-08T23:52:13.039Z,96523.25
2019-02-08T23:55:20.142Z,96518.08
2019-02-08T23:58:28.208Z,96508.88
